sensor_id;sensor_type;location;lat;lon;timestamp;P1;durP1;ratioP1;P2;durP2;ratioP2
50355;SDS011;36264;51.296;-0.602;2023-04-24T00:00:42;10.00;;;6.70;;
50355;SDS011;36264;51.296;-0.602;2023-04-24T00:03:10;10.60;;;7.10;;
50355;SDS011;36264;51.296;-0.602;2023-04-24T00:05:36;8.70;;;5.78;;
50355;SDS011;36264;51.296;-0.602;2023-04-24T00:08:01;9.30;;;6.35;;
50355;SDS011;36264;51.296;-0.602;2023-04-24T00:10:26;9.50;;;6.13;;
50355;SDS011;36264;51.296;-0.602;2023-04-24T00:12:52;10.45;;;6.85;;
50355;SDS011;36264;51.296;-0.602;2023-04-24T00:15:17;10.38;;;7.45;;
50355;SDS011;36264;51.296;-0.602;2023-04-24T00:17:43;8.68;;;6.13;;
50355;SDS011;36264;51.296;-0.602;2023-04-24T00:20:08;9.52;;;6.32;;
50355;SDS011;36264;51.296;-0.602;2023-04-24T00:22:35;10.30;;;6.75;;
50355;SDS011;36264;51.296;-0.602;2023-04-24T00:25:01;10.30;;;6.25;;
50355;SDS011;36264;51.296;-0.602;2023-04-24T00:27:26;10.02;;;6.75;;
50355;SDS011;36264;51.296;-0.602;2023-04-24T00:29:51;9.60;;;6.57;;
50355;SDS011;36264;51.296;-0.602;2023-04-24T00:32:17;9.70;;;6.80;;
50355;SDS011;36264;51.296;-0.602;2023-04-24T00:34:42;9.48;;;6.18;;
50355;SDS011;36264;51.296;-0.602;2023-04-24T00:37:08;10.93;;;6.60;;
50355;SDS011;36264;51.296;-0.602;2023-04-24T00:39:33;10.52;;;6.43;;
50355;SDS011;36264;51.296;-0.602;2023-04-24T00:41:58;9.75;;;6.63;;
50355;SDS011;36264;51.296;-0.602;2023-04-24T00:44:24;8.82;;;5.97;;
50355;SDS011;36264;51.296;-0.602;2023-04-24T00:46:50;9.18;;;5.68;;
50355;SDS011;36264;51.296;-0.602;2023-04-24T00:49:19;8.55;;;5.70;;
50355;SDS011;36264;51.296;-0.602;2023-04-24T00:51:47;9.50;;;5.97;;
50355;SDS011;36264;51.296;-0.602;2023-04-24T00:54:14;10.25;;;7.00;;
50355;SDS011;36264;51.296;-0.602;2023-04-24T00:56:40;9.48;;;6.22;;
50355;SDS011;36264;51.296;-0.602;2023-04-24T00:59:07;9.18;;;6.10;;
50355;SDS011;36264;51.296;-0.602;2023-04-24T01:01:33;10.55;;;6.82;;
50355;SDS011;36264;51.296;-0.602;2023-04-24T01:03:58;10.38;;;7.28;;
50355;SDS011;36264;51.296;-0.602;2023-04-24T01:06:26;8.35;;;5.72;;
50355;SDS011;36264;51.296;-0.602;2023-04-24T01:08:52;12.00;;;6.63;;
50355;SDS011;36264;51.296;-0.602;2023-04-24T01:11:20;9.00;;;6.32;;
50355;SDS011;36264;51.296;-0.602;2023-04-24T01:13:47;9.00;;;6.25;;
50355;SDS011;36264;51.296;-0.602;2023-04-24T01:16:13;8.80;;;5.80;;
50355;SDS011;36264;51.296;-0.602;2023-04-24T01:18:40;8.63;;;5.90;;
50355;SDS011;36264;51.296;-0.602;2023-04-24T01:21:06;9.63;;;5.82;;
50355;SDS011;36264;51.296;-0.602;2023-04-24T01:23:33;8.30;;;5.50;;
50355;SDS011;36264;51.296;-0.602;2023-04-24T01:25:59;10.05;;;6.30;;
50355;SDS011;36264;51.296;-0.602;2023-04-24T01:28:24;8.80;;;6.03;;
50355;SDS011;36264;51.296;-0.602;2023-04-24T01:30:50;9.38;;;6.18;;
50355;SDS011;36264;51.296;-0.602;2023-04-24T01:33:16;8.27;;;5.75;;
50355;SDS011;36264;51.296;-0.602;2023-04-24T01:35:42;11.45;;;5.78;;
50355;SDS011;36264;51.296;-0.602;2023-04-24T01:38:07;9.40;;;5.90;;
50355;SDS011;36264;51.296;-0.602;2023-04-24T01:40:33;10.60;;;7.07;;
50355;SDS011;36264;51.296;-0.602;2023-04-24T01:42:59;8.77;;;5.80;;
50355;SDS011;36264;51.296;-0.602;2023-04-24T01:45:25;8.77;;;5.63;;
50355;SDS011;36264;51.296;-0.602;2023-04-24T01:47:50;11.48;;;6.97;;
50355;SDS011;36264;51.296;-0.602;2023-04-24T01:50:16;9.77;;;6.00;;
50355;SDS011;36264;51.296;-0.602;2023-04-24T01:52:42;9.50;;;6.60;;
50355;SDS011;36264;51.296;-0.602;2023-04-24T01:55:08;9.18;;;6.20;;
50355;SDS011;36264;51.296;-0.602;2023-04-24T01:57:34;8.60;;;5.90;;
50355;SDS011;36264;51.296;-0.602;2023-04-24T02:00:00;9.30;;;6.47;;
50355;SDS011;36264;51.296;-0.602;2023-04-24T02:02:25;10.10;;;6.40;;
50355;SDS011;36264;51.296;-0.602;2023-04-24T02:04:54;10.88;;;6.88;;
50355;SDS011;36264;51.296;-0.602;2023-04-24T02:07:20;10.73;;;6.72;;
50355;SDS011;36264;51.296;-0.602;2023-04-24T02:09:46;9.95;;;6.53;;
50355;SDS011;36264;51.296;-0.602;2023-04-24T02:12:11;8.32;;;5.70;;
50355;SDS011;36264;51.296;-0.602;2023-04-24T02:14:37;9.32;;;6.05;;
50355;SDS011;36264;51.296;-0.602;2023-04-24T02:17:02;8.95;;;6.32;;
50355;SDS011;36264;51.296;-0.602;2023-04-24T02:19:29;12.07;;;6.90;;
50355;SDS011;36264;51.296;-0.602;2023-04-24T02:21:55;9.25;;;6.15;;
50355;SDS011;36264;51.296;-0.602;2023-04-24T02:24:20;8.13;;;5.40;;
50355;SDS011;36264;51.296;-0.602;2023-04-24T02:26:46;9.65;;;6.13;;
50355;SDS011;36264;51.296;-0.602;2023-04-24T02:29:11;9.50;;;6.18;;
50355;SDS011;36264;51.296;-0.602;2023-04-24T02:31:36;8.55;;;5.47;;
50355;SDS011;36264;51.296;-0.602;2023-04-24T02:34:02;7.50;;;5.47;;
50355;SDS011;36264;51.296;-0.602;2023-04-24T02:36:27;9.27;;;5.60;;
50355;SDS011;36264;51.296;-0.602;2023-04-24T02:38:53;9.55;;;6.15;;
50355;SDS011;36264;51.296;-0.602;2023-04-24T02:41:18;10.90;;;6.00;;
50355;SDS011;36264;51.296;-0.602;2023-04-24T02:43:44;9.00;;;6.35;;
50355;SDS011;36264;51.296;-0.602;2023-04-24T02:46:11;10.48;;;7.07;;
50355;SDS011;36264;51.296;-0.602;2023-04-24T02:48:36;11.07;;;7.10;;
50355;SDS011;36264;51.296;-0.602;2023-04-24T02:51:02;9.85;;;6.82;;
50355;SDS011;36264;51.296;-0.602;2023-04-24T02:53:27;10.55;;;6.78;;
50355;SDS011;36264;51.296;-0.602;2023-04-24T02:55:54;11.23;;;7.22;;
50355;SDS011;36264;51.296;-0.602;2023-04-24T02:58:20;9.20;;;6.57;;
50355;SDS011;36264;51.296;-0.602;2023-04-24T03:00:46;11.10;;;6.95;;
50355;SDS011;36264;51.296;-0.602;2023-04-24T03:03:12;10.95;;;7.40;;
50355;SDS011;36264;51.296;-0.602;2023-04-24T03:05:37;10.75;;;6.97;;
50355;SDS011;36264;51.296;-0.602;2023-04-24T03:08:03;10.32;;;7.35;;
50355;SDS011;36264;51.296;-0.602;2023-04-24T03:10:28;10.20;;;6.80;;
50355;SDS011;36264;51.296;-0.602;2023-04-24T03:12:54;8.98;;;6.20;;
50355;SDS011;36264;51.296;-0.602;2023-04-24T03:15:20;10.15;;;6.25;;
50355;SDS011;36264;51.296;-0.602;2023-04-24T03:17:45;10.00;;;6.60;;
50355;SDS011;36264;51.296;-0.602;2023-04-24T03:20:11;9.38;;;6.50;;
50355;SDS011;36264;51.296;-0.602;2023-04-24T03:22:36;9.85;;;6.10;;
50355;SDS011;36264;51.296;-0.602;2023-04-24T03:25:02;10.32;;;6.68;;
50355;SDS011;36264;51.296;-0.602;2023-04-24T03:27:27;10.02;;;6.80;;
50355;SDS011;36264;51.296;-0.602;2023-04-24T03:29:53;11.90;;;6.97;;
50355;SDS011;36264;51.296;-0.602;2023-04-24T03:32:21;10.43;;;6.47;;
50355;SDS011;36264;51.296;-0.602;2023-04-24T03:34:47;9.02;;;6.28;;
50355;SDS011;36264;51.296;-0.602;2023-04-24T03:37:13;9.95;;;6.88;;
50355;SDS011;36264;51.296;-0.602;2023-04-24T03:39:39;10.45;;;7.13;;
50355;SDS011;36264;51.296;-0.602;2023-04-24T03:42:05;10.93;;;6.70;;
50355;SDS011;36264;51.296;-0.602;2023-04-24T03:44:30;10.00;;;6.50;;
50355;SDS011;36264;51.296;-0.602;2023-04-24T03:46:55;10.80;;;7.15;;
50355;SDS011;36264;51.296;-0.602;2023-04-24T03:49:23;9.27;;;6.32;;
50355;SDS011;36264;51.296;-0.602;2023-04-24T03:51:48;9.63;;;6.18;;
50355;SDS011;36264;51.296;-0.602;2023-04-24T03:54:14;10.93;;;7.07;;
50355;SDS011;36264;51.296;-0.602;2023-04-24T03:56:39;10.30;;;6.75;;
50355;SDS011;36264;51.296;-0.602;2023-04-24T03:59:04;10.93;;;6.78;;
50355;SDS011;36264;51.296;-0.602;2023-04-24T04:01:30;9.85;;;6.45;;
50355;SDS011;36264;51.296;-0.602;2023-04-24T04:03:55;10.00;;;6.80;;
50355;SDS011;36264;51.296;-0.602;2023-04-24T04:06:21;9.90;;;6.93;;
50355;SDS011;36264;51.296;-0.602;2023-04-24T04:08:46;10.05;;;6.32;;
50355;SDS011;36264;51.296;-0.602;2023-04-24T04:11:12;8.50;;;5.65;;
50355;SDS011;36264;51.296;-0.602;2023-04-24T04:13:38;9.65;;;6.65;;
50355;SDS011;36264;51.296;-0.602;2023-04-24T04:16:03;8.75;;;6.07;;
50355;SDS011;36264;51.296;-0.602;2023-04-24T04:18:29;11.80;;;6.57;;
50355;SDS011;36264;51.296;-0.602;2023-04-24T04:20:54;9.85;;;6.40;;
50355;SDS011;36264;51.296;-0.602;2023-04-24T04:23:21;10.30;;;6.40;;
50355;SDS011;36264;51.296;-0.602;2023-04-24T04:25:47;9.55;;;6.30;;
50355;SDS011;36264;51.296;-0.602;2023-04-24T04:28:12;9.43;;;6.47;;
50355;SDS011;36264;51.296;-0.602;2023-04-24T04:30:38;9.27;;;5.88;;
50355;SDS011;36264;51.296;-0.602;2023-04-24T04:33:03;8.30;;;5.40;;
50355;SDS011;36264;51.296;-0.602;2023-04-24T04:35:28;10.60;;;5.88;;
50355;SDS011;36264;51.296;-0.602;2023-04-24T04:37:54;9.80;;;5.72;;
50355;SDS011;36264;51.296;-0.602;2023-04-24T04:40:19;9.60;;;6.00;;
50355;SDS011;36264;51.296;-0.602;2023-04-24T04:42:44;10.65;;;6.47;;
50355;SDS011;36264;51.296;-0.602;2023-04-24T04:45:11;8.77;;;5.90;;
50355;SDS011;36264;51.296;-0.602;2023-04-24T04:47:36;12.95;;;6.00;;
50355;SDS011;36264;51.296;-0.602;2023-04-24T04:50:02;7.60;;;5.20;;
50355;SDS011;36264;51.296;-0.602;2023-04-24T04:52:28;8.40;;;4.60;;
50355;SDS011;36264;51.296;-0.602;2023-04-24T04:54:54;7.25;;;4.68;;
50355;SDS011;36264;51.296;-0.602;2023-04-24T04:57:20;9.23;;;4.93;;
50355;SDS011;36264;51.296;-0.602;2023-04-24T04:59:46;7.30;;;5.15;;
50355;SDS011;36264;51.296;-0.602;2023-04-24T05:02:11;6.47;;;4.40;;
50355;SDS011;36264;51.296;-0.602;2023-04-24T05:04:37;7.57;;;4.40;;
50355;SDS011;36264;51.296;-0.602;2023-04-24T05:07:03;7.25;;;4.80;;
50355;SDS011;36264;51.296;-0.602;2023-04-24T05:09:28;7.35;;;4.97;;
50355;SDS011;36264;51.296;-0.602;2023-04-24T05:11:54;8.23;;;4.75;;
50355;SDS011;36264;51.296;-0.602;2023-04-24T05:14:20;7.57;;;5.00;;
50355;SDS011;36264;51.296;-0.602;2023-04-24T05:16:45;7.05;;;4.38;;
50355;SDS011;36264;51.296;-0.602;2023-04-24T05:19:11;6.97;;;4.93;;
50355;SDS011;36264;51.296;-0.602;2023-04-24T05:21:38;6.80;;;4.80;;
50355;SDS011;36264;51.296;-0.602;2023-04-24T05:24:04;6.85;;;4.57;;
50355;SDS011;36264;51.296;-0.602;2023-04-24T05:26:30;6.82;;;4.60;;
50355;SDS011;36264;51.296;-0.602;2023-04-24T05:28:55;6.88;;;4.53;;
50355;SDS011;36264;51.296;-0.602;2023-04-24T05:31:21;7.20;;;4.75;;
50355;SDS011;36264;51.296;-0.602;2023-04-24T05:33:46;8.13;;;4.68;;
50355;SDS011;36264;51.296;-0.602;2023-04-24T05:36:11;6.95;;;4.20;;
50355;SDS011;36264;51.296;-0.602;2023-04-24T05:38:37;7.05;;;4.70;;
50355;SDS011;36264;51.296;-0.602;2023-04-24T05:41:03;6.35;;;4.50;;
50355;SDS011;36264;51.296;-0.602;2023-04-24T05:43:28;9.82;;;5.07;;
50355;SDS011;36264;51.296;-0.602;2023-04-24T05:45:53;7.55;;;5.07;;
50355;SDS011;36264;51.296;-0.602;2023-04-24T05:48:20;7.13;;;4.60;;
50355;SDS011;36264;51.296;-0.602;2023-04-24T05:50:47;7.35;;;5.03;;
50355;SDS011;36264;51.296;-0.602;2023-04-24T05:53:13;6.50;;;4.10;;
50355;SDS011;36264;51.296;-0.602;2023-04-24T05:55:38;7.47;;;4.40;;
50355;SDS011;36264;51.296;-0.602;2023-04-24T05:58:04;7.32;;;4.75;;
50355;SDS011;36264;51.296;-0.602;2023-04-24T06:00:29;8.13;;;4.70;;
50355;SDS011;36264;51.296;-0.602;2023-04-24T06:02:56;9.40;;;5.30;;
50355;SDS011;36264;51.296;-0.602;2023-04-24T06:05:21;13.48;;;6.80;;
50355;SDS011;36264;51.296;-0.602;2023-04-24T06:07:47;11.32;;;6.03;;
50355;SDS011;36264;51.296;-0.602;2023-04-24T06:10:13;9.15;;;5.60;;
50355;SDS011;36264;51.296;-0.602;2023-04-24T06:12:38;9.02;;;5.38;;
50355;SDS011;36264;51.296;-0.602;2023-04-24T06:15:04;8.02;;;5.32;;
50355;SDS011;36264;51.296;-0.602;2023-04-24T06:17:30;9.57;;;5.20;;
50355;SDS011;36264;51.296;-0.602;2023-04-24T06:19:55;7.80;;;5.20;;
50355;SDS011;36264;51.296;-0.602;2023-04-24T06:22:21;8.27;;;5.55;;
50355;SDS011;36264;51.296;-0.602;2023-04-24T06:24:46;7.63;;;4.90;;
50355;SDS011;36264;51.296;-0.602;2023-04-24T06:27:13;7.90;;;5.28;;
50355;SDS011;36264;51.296;-0.602;2023-04-24T06:29:38;7.25;;;5.00;;
50355;SDS011;36264;51.296;-0.602;2023-04-24T06:32:04;7.35;;;4.72;;
50355;SDS011;36264;51.296;-0.602;2023-04-24T06:34:29;7.78;;;5.05;;
50355;SDS011;36264;51.296;-0.602;2023-04-24T06:36:55;8.93;;;5.90;;
50355;SDS011;36264;51.296;-0.602;2023-04-24T06:39:21;8.98;;;5.00;;
50355;SDS011;36264;51.296;-0.602;2023-04-24T06:41:46;9.07;;;5.30;;
50355;SDS011;36264;51.296;-0.602;2023-04-24T06:44:12;8.95;;;5.60;;
50355;SDS011;36264;51.296;-0.602;2023-04-24T06:46:39;8.82;;;5.50;;
50355;SDS011;36264;51.296;-0.602;2023-04-24T06:49:05;7.55;;;5.13;;
50355;SDS011;36264;51.296;-0.602;2023-04-24T06:51:31;7.60;;;5.28;;
50355;SDS011;36264;51.296;-0.602;2023-04-24T06:53:58;10.13;;;5.32;;
50355;SDS011;36264;51.296;-0.602;2023-04-24T06:56:24;8.82;;;5.30;;
50355;SDS011;36264;51.296;-0.602;2023-04-24T06:58:50;6.22;;;4.32;;
50355;SDS011;36264;51.296;-0.602;2023-04-24T07:01:16;9.57;;;5.15;;
50355;SDS011;36264;51.296;-0.602;2023-04-24T07:03:41;8.43;;;5.05;;
50355;SDS011;36264;51.296;-0.602;2023-04-24T07:06:07;9.10;;;5.18;;
50355;SDS011;36264;51.296;-0.602;2023-04-24T07:08:32;7.68;;;5.10;;
50355;SDS011;36264;51.296;-0.602;2023-04-24T07:10:58;9.50;;;6.13;;
50355;SDS011;36264;51.296;-0.602;2023-04-24T07:13:24;9.88;;;6.05;;
50355;SDS011;36264;51.296;-0.602;2023-04-24T07:15:49;8.90;;;5.35;;
50355;SDS011;36264;51.296;-0.602;2023-04-24T07:18:17;7.07;;;4.95;;
50355;SDS011;36264;51.296;-0.602;2023-04-24T07:20:43;8.15;;;5.68;;
50355;SDS011;36264;51.296;-0.602;2023-04-24T07:23:08;8.65;;;4.90;;
50355;SDS011;36264;51.296;-0.602;2023-04-24T07:25:34;11.60;;;5.50;;
50355;SDS011;36264;51.296;-0.602;2023-04-24T07:27:59;9.60;;;5.43;;
50355;SDS011;36264;51.296;-0.602;2023-04-24T07:30:25;10.18;;;5.25;;
50355;SDS011;36264;51.296;-0.602;2023-04-24T07:32:50;7.90;;;4.70;;
50355;SDS011;36264;51.296;-0.602;2023-04-24T07:35:16;8.02;;;5.22;;
50355;SDS011;36264;51.296;-0.602;2023-04-24T07:37:41;11.88;;;5.40;;
50355;SDS011;36264;51.296;-0.602;2023-04-24T07:40:11;10.40;;;5.07;;
50355;SDS011;36264;51.296;-0.602;2023-04-24T07:42:37;8.48;;;5.15;;
50355;SDS011;36264;51.296;-0.602;2023-04-24T07:45:03;9.55;;;4.95;;
50355;SDS011;36264;51.296;-0.602;2023-04-24T07:47:29;7.47;;;5.00;;
50355;SDS011;36264;51.296;-0.602;2023-04-24T07:49:54;7.20;;;4.70;;
50355;SDS011;36264;51.296;-0.602;2023-04-24T07:52:20;10.43;;;5.20;;
50355;SDS011;36264;51.296;-0.602;2023-04-24T07:54:45;7.78;;;4.97;;
50355;SDS011;36264;51.296;-0.602;2023-04-24T07:57:10;10.18;;;5.40;;
50355;SDS011;36264;51.296;-0.602;2023-04-24T07:59:36;8.38;;;4.65;;
50355;SDS011;36264;51.296;-0.602;2023-04-24T08:02:01;7.88;;;4.22;;
50355;SDS011;36264;51.296;-0.602;2023-04-24T08:04:27;8.23;;;4.30;;
50355;SDS011;36264;51.296;-0.602;2023-04-24T08:06:52;6.68;;;4.15;;
50355;SDS011;36264;51.296;-0.602;2023-04-24T08:09:17;8.98;;;4.70;;
50355;SDS011;36264;51.296;-0.602;2023-04-24T08:11:43;7.13;;;4.38;;
50355;SDS011;36264;51.296;-0.602;2023-04-24T08:14:08;10.80;;;4.00;;
50355;SDS011;36264;51.296;-0.602;2023-04-24T08:16:34;8.57;;;4.50;;
50355;SDS011;36264;51.296;-0.602;2023-04-24T08:19:00;6.82;;;3.92;;
50355;SDS011;36264;51.296;-0.602;2023-04-24T08:21:25;9.38;;;4.50;;
50355;SDS011;36264;51.296;-0.602;2023-04-24T08:23:52;8.00;;;4.65;;
50355;SDS011;36264;51.296;-0.602;2023-04-24T08:26:17;7.22;;;4.40;;
50355;SDS011;36264;51.296;-0.602;2023-04-24T08:28:43;8.80;;;4.43;;
50355;SDS011;36264;51.296;-0.602;2023-04-24T08:31:08;7.93;;;4.35;;
50355;SDS011;36264;51.296;-0.602;2023-04-24T08:33:34;8.98;;;4.47;;
50355;SDS011;36264;51.296;-0.602;2023-04-24T08:36:00;6.80;;;4.57;;
50355;SDS011;36264;51.296;-0.602;2023-04-24T08:38:27;8.50;;;4.35;;
50355;SDS011;36264;51.296;-0.602;2023-04-24T08:40:52;7.93;;;5.07;;
50355;SDS011;36264;51.296;-0.602;2023-04-24T08:43:18;6.20;;;4.03;;
50355;SDS011;36264;51.296;-0.602;2023-04-24T08:45:47;6.47;;;4.30;;
50355;SDS011;36264;51.296;-0.602;2023-04-24T08:48:12;7.85;;;4.40;;
50355;SDS011;36264;51.296;-0.602;2023-04-24T08:50:38;6.53;;;4.75;;
50355;SDS011;36264;51.296;-0.602;2023-04-24T08:53:06;7.18;;;4.40;;
50355;SDS011;36264;51.296;-0.602;2023-04-24T08:55:33;10.45;;;4.65;;
50355;SDS011;36264;51.296;-0.602;2023-04-24T08:57:59;7.30;;;4.40;;
50355;SDS011;36264;51.296;-0.602;2023-04-24T09:00:24;8.52;;;4.50;;
50355;SDS011;36264;51.296;-0.602;2023-04-24T09:02:51;7.68;;;4.70;;
50355;SDS011;36264;51.296;-0.602;2023-04-24T09:05:18;7.85;;;4.70;;
50355;SDS011;36264;51.296;-0.602;2023-04-24T09:07:49;8.75;;;4.65;;
50355;SDS011;36264;51.296;-0.602;2023-04-24T09:10:18;9.50;;;5.03;;
50355;SDS011;36264;51.296;-0.602;2023-04-24T09:12:44;6.93;;;4.70;;
50355;SDS011;36264;51.296;-0.602;2023-04-24T09:15:10;8.55;;;4.80;;
50355;SDS011;36264;51.296;-0.602;2023-04-24T09:17:36;7.97;;;4.70;;
50355;SDS011;36264;51.296;-0.602;2023-04-24T09:20:02;9.00;;;4.60;;
50355;SDS011;36264;51.296;-0.602;2023-04-24T09:22:29;7.60;;;4.20;;
50355;SDS011;36264;51.296;-0.602;2023-04-24T09:25:05;7.50;;;4.43;;
50355;SDS011;36264;51.296;-0.602;2023-04-24T09:27:34;7.53;;;4.45;;
50355;SDS011;36264;51.296;-0.602;2023-04-24T09:30:00;7.63;;;4.28;;
50355;SDS011;36264;51.296;-0.602;2023-04-24T09:32:26;7.80;;;4.47;;
50355;SDS011;36264;51.296;-0.602;2023-04-24T09:37:41;7.43;;;4.93;;
50355;SDS011;36264;51.296;-0.602;2023-04-24T09:40:11;6.70;;;4.60;;
50355;SDS011;36264;51.296;-0.602;2023-04-24T09:42:59;11.98;;;5.82;;
50355;SDS011;36264;51.296;-0.602;2023-04-24T09:45:28;10.25;;;5.88;;
50355;SDS011;36264;51.296;-0.602;2023-04-24T09:47:59;9.63;;;5.05;;
50355;SDS011;36264;51.296;-0.602;2023-04-24T09:50:25;7.55;;;5.10;;
50355;SDS011;36264;51.296;-0.602;2023-04-24T09:53:03;9.02;;;5.03;;
50355;SDS011;36264;51.296;-0.602;2023-04-24T09:55:30;8.63;;;4.72;;
50355;SDS011;36264;51.296;-0.602;2023-04-24T09:57:59;8.35;;;4.22;;
50355;SDS011;36264;51.296;-0.602;2023-04-24T10:00:27;12.32;;;6.05;;
50355;SDS011;36264;51.296;-0.602;2023-04-24T10:03:00;7.57;;;4.55;;
50355;SDS011;36264;51.296;-0.602;2023-04-24T10:05:31;8.27;;;5.22;;
50355;SDS011;36264;51.296;-0.602;2023-04-24T10:08:02;7.93;;;4.53;;
50355;SDS011;36264;51.296;-0.602;2023-04-24T10:10:28;8.35;;;4.65;;
50355;SDS011;36264;51.296;-0.602;2023-04-24T10:12:54;9.57;;;4.28;;
50355;SDS011;36264;51.296;-0.602;2023-04-24T10:15:20;8.88;;;4.10;;
50355;SDS011;36264;51.296;-0.602;2023-04-24T10:17:49;7.13;;;4.22;;
50355;SDS011;36264;51.296;-0.602;2023-04-24T10:20:19;7.57;;;3.90;;
50355;SDS011;36264;51.296;-0.602;2023-04-24T10:22:49;6.80;;;3.78;;
50355;SDS011;36264;51.296;-0.602;2023-04-24T10:25:16;6.35;;;3.88;;
50355;SDS011;36264;51.296;-0.602;2023-04-24T10:27:46;5.78;;;3.70;;
50355;SDS011;36264;51.296;-0.602;2023-04-24T10:30:13;7.00;;;3.53;;
50355;SDS011;36264;51.296;-0.602;2023-04-24T10:32:39;6.38;;;3.70;;
50355;SDS011;36264;51.296;-0.602;2023-04-24T10:35:05;5.90;;;3.67;;
50355;SDS011;36264;51.296;-0.602;2023-04-24T10:37:45;7.40;;;4.25;;
50355;SDS011;36264;51.296;-0.602;2023-04-24T10:40:17;5.07;;;3.30;;
50355;SDS011;36264;51.296;-0.602;2023-04-24T10:42:46;5.85;;;3.75;;
50355;SDS011;36264;51.296;-0.602;2023-04-24T10:45:17;6.63;;;3.85;;
50355;SDS011;36264;51.296;-0.602;2023-04-24T10:48:07;5.22;;;3.40;;
50355;SDS011;36264;51.296;-0.602;2023-04-24T10:50:45;7.10;;;3.47;;
50355;SDS011;36264;51.296;-0.602;2023-04-24T10:53:16;6.05;;;3.38;;
50355;SDS011;36264;51.296;-0.602;2023-04-24T10:55:52;7.00;;;3.80;;
50355;SDS011;36264;51.296;-0.602;2023-04-24T10:58:23;7.95;;;3.60;;
50355;SDS011;36264;51.296;-0.602;2023-04-24T11:00:56;5.43;;;3.95;;
50355;SDS011;36264;51.296;-0.602;2023-04-24T11:03:26;7.10;;;3.50;;
50355;SDS011;36264;51.296;-0.602;2023-04-24T11:11:17;7.95;;;3.50;;
50355;SDS011;36264;51.296;-0.602;2023-04-24T11:18:49;6.45;;;3.42;;
50355;SDS011;36264;51.296;-0.602;2023-04-24T11:21:18;6.50;;;3.53;;
50355;SDS011;36264;51.296;-0.602;2023-04-24T11:23:44;6.47;;;2.88;;
50355;SDS011;36264;51.296;-0.602;2023-04-24T11:26:11;7.50;;;3.00;;
50355;SDS011;36264;51.296;-0.602;2023-04-24T11:28:43;5.45;;;3.17;;
50355;SDS011;36264;51.296;-0.602;2023-04-24T11:34:10;6.47;;;3.53;;
50355;SDS011;36264;51.296;-0.602;2023-04-24T11:36:37;4.95;;;3.25;;
50355;SDS011;36264;51.296;-0.602;2023-04-24T11:39:03;6.90;;;3.20;;
50355;SDS011;36264;51.296;-0.602;2023-04-24T11:41:28;6.38;;;3.30;;
50355;SDS011;36264;51.296;-0.602;2023-04-24T11:43:54;5.60;;;3.38;;
50355;SDS011;36264;51.296;-0.602;2023-04-24T11:46:21;6.28;;;3.17;;
50355;SDS011;36264;51.296;-0.602;2023-04-24T11:48:46;5.15;;;2.90;;
50355;SDS011;36264;51.296;-0.602;2023-04-24T11:51:13;4.95;;;3.00;;
50355;SDS011;36264;51.296;-0.602;2023-04-24T11:53:38;6.93;;;3.15;;
50355;SDS011;36264;51.296;-0.602;2023-04-24T11:56:04;5.80;;;3.28;;
50355;SDS011;36264;51.296;-0.602;2023-04-24T11:58:34;5.18;;;3.20;;
50355;SDS011;36264;51.296;-0.602;2023-04-24T12:03:26;7.30;;;3.40;;
50355;SDS011;36264;51.296;-0.602;2023-04-24T12:05:52;5.68;;;2.75;;
50355;SDS011;36264;51.296;-0.602;2023-04-24T12:08:27;5.07;;;3.10;;
50355;SDS011;36264;51.296;-0.602;2023-04-24T12:10:53;5.50;;;2.90;;
50355;SDS011;36264;51.296;-0.602;2023-04-24T12:13:19;5.05;;;2.67;;
50355;SDS011;36264;51.296;-0.602;2023-04-24T12:15:45;6.95;;;3.15;;
50355;SDS011;36264;51.296;-0.602;2023-04-24T12:18:13;7.03;;;3.25;;
50355;SDS011;36264;51.296;-0.602;2023-04-24T12:20:40;4.57;;;2.60;;
50355;SDS011;36264;51.296;-0.602;2023-04-24T12:23:05;6.88;;;3.40;;
50355;SDS011;36264;51.296;-0.602;2023-04-24T12:25:32;5.25;;;2.85;;
50355;SDS011;36264;51.296;-0.602;2023-04-24T12:30:29;5.70;;;3.00;;
50355;SDS011;36264;51.296;-0.602;2023-04-24T12:32:56;4.38;;;2.60;;
50355;SDS011;36264;51.296;-0.602;2023-04-24T12:35:23;6.55;;;3.40;;
50355;SDS011;36264;51.296;-0.602;2023-04-24T12:37:50;6.03;;;3.05;;
50355;SDS011;36264;51.296;-0.602;2023-04-24T12:40:16;4.70;;;2.63;;
50355;SDS011;36264;51.296;-0.602;2023-04-24T12:42:43;7.22;;;4.13;;
50355;SDS011;36264;51.296;-0.602;2023-04-24T12:45:10;5.53;;;3.10;;
50355;SDS011;36264;51.296;-0.602;2023-04-24T12:47:37;5.78;;;2.90;;
50355;SDS011;36264;51.296;-0.602;2023-04-24T12:50:04;5.32;;;2.72;;
50355;SDS011;36264;51.296;-0.602;2023-04-24T12:52:31;5.40;;;2.88;;
50355;SDS011;36264;51.296;-0.602;2023-04-24T12:54:57;4.85;;;3.40;;
50355;SDS011;36264;51.296;-0.602;2023-04-24T12:57:25;5.45;;;3.25;;
50355;SDS011;36264;51.296;-0.602;2023-04-24T12:59:53;4.72;;;2.80;;
50355;SDS011;36264;51.296;-0.602;2023-04-24T13:02:32;4.75;;;2.80;;
50355;SDS011;36264;51.296;-0.602;2023-04-24T13:04:58;6.25;;;3.55;;
50355;SDS011;36264;51.296;-0.602;2023-04-24T13:07:24;6.88;;;2.92;;
50355;SDS011;36264;51.296;-0.602;2023-04-24T13:09:50;5.93;;;3.33;;
50355;SDS011;36264;51.296;-0.602;2023-04-24T13:12:17;5.70;;;2.97;;
50355;SDS011;36264;51.296;-0.602;2023-04-24T13:14:43;5.80;;;3.38;;
50355;SDS011;36264;51.296;-0.602;2023-04-24T13:17:09;5.88;;;3.20;;
50355;SDS011;36264;51.296;-0.602;2023-04-24T13:19:38;6.60;;;3.22;;
50355;SDS011;36264;51.296;-0.602;2023-04-24T13:22:06;6.20;;;3.20;;
50355;SDS011;36264;51.296;-0.602;2023-04-24T13:24:32;5.25;;;2.90;;
50355;SDS011;36264;51.296;-0.602;2023-04-24T13:26:58;5.93;;;2.85;;
50355;SDS011;36264;51.296;-0.602;2023-04-24T13:29:23;4.75;;;2.80;;
50355;SDS011;36264;51.296;-0.602;2023-04-24T13:31:49;5.93;;;2.70;;
50355;SDS011;36264;51.296;-0.602;2023-04-24T13:34:16;5.25;;;2.60;;
50355;SDS011;36264;51.296;-0.602;2023-04-24T13:36:42;6.00;;;2.47;;
50355;SDS011;36264;51.296;-0.602;2023-04-24T13:39:07;6.30;;;4.07;;
50355;SDS011;36264;51.296;-0.602;2023-04-24T13:41:33;6.80;;;3.00;;
50355;SDS011;36264;51.296;-0.602;2023-04-24T13:43:59;5.57;;;2.90;;
50355;SDS011;36264;51.296;-0.602;2023-04-24T13:46:24;6.15;;;3.10;;
50355;SDS011;36264;51.296;-0.602;2023-04-24T13:48:50;5.70;;;3.00;;
50355;SDS011;36264;51.296;-0.602;2023-04-24T13:51:16;5.15;;;2.92;;
50355;SDS011;36264;51.296;-0.602;2023-04-24T13:53:41;7.03;;;2.80;;
50355;SDS011;36264;51.296;-0.602;2023-04-24T13:56:06;7.55;;;2.88;;
50355;SDS011;36264;51.296;-0.602;2023-04-24T13:58:32;4.75;;;2.60;;
50355;SDS011;36264;51.296;-0.602;2023-04-24T14:00:58;11.35;;;3.13;;
50355;SDS011;36264;51.296;-0.602;2023-04-24T14:03:23;10.70;;;2.92;;
50355;SDS011;36264;51.296;-0.602;2023-04-24T14:05:48;11.68;;;3.00;;
50355;SDS011;36264;51.296;-0.602;2023-04-24T14:08:14;4.40;;;2.80;;
50355;SDS011;36264;51.296;-0.602;2023-04-24T14:10:40;6.50;;;2.88;;
50355;SDS011;36264;51.296;-0.602;2023-04-24T14:13:05;10.88;;;4.13;;
50355;SDS011;36264;51.296;-0.602;2023-04-24T14:15:31;11.45;;;5.28;;
50355;SDS011;36264;51.296;-0.602;2023-04-24T14:17:57;10.52;;;4.20;;
50355;SDS011;36264;51.296;-0.602;2023-04-24T14:20:22;6.78;;;3.20;;
50355;SDS011;36264;51.296;-0.602;2023-04-24T14:22:48;4.75;;;2.72;;
50355;SDS011;36264;51.296;-0.602;2023-04-24T14:25:13;5.82;;;2.55;;
50355;SDS011;36264;51.296;-0.602;2023-04-24T14:27:39;4.40;;;2.60;;
50355;SDS011;36264;51.296;-0.602;2023-04-24T14:30:05;4.80;;;2.90;;
50355;SDS011;36264;51.296;-0.602;2023-04-24T14:32:31;5.32;;;3.00;;
50355;SDS011;36264;51.296;-0.602;2023-04-24T14:34:56;4.35;;;2.65;;
50355;SDS011;36264;51.296;-0.602;2023-04-24T14:37:22;4.57;;;2.80;;
50355;SDS011;36264;51.296;-0.602;2023-04-24T14:39:47;4.75;;;2.75;;
50355;SDS011;36264;51.296;-0.602;2023-04-24T14:42:12;4.45;;;2.60;;
50355;SDS011;36264;51.296;-0.602;2023-04-24T14:44:38;4.30;;;2.65;;
50355;SDS011;36264;51.296;-0.602;2023-04-24T14:47:04;4.32;;;2.55;;